Puerto Banus, Marbella

>

This is an optional block (switch it off / on) in the settings - file ($SITE['banners'] = false;)

You can display ads, any other important text or photo’s using text / html or PHP code.

You can place one or more at the top and or bottom and it can all be different for content / size .



Meteosat more information blitzortung!


Radar lluvias  rain snow radar


Visita nuestra red de sitios de meteo:

Documentation for the template used

MeteoibericaRed estaciones Meteorologicas

MeteoclimaticRed estaciones Meteorologicas



Sin Advertencias climatologicas .En este momento tenemos Nivel Verde.    No hay Alarmas

Pagina Historial Weather Underground texto

Diario Resumen January 5, 2018 Unidades:  Tanto    impérial   Métrico
« Anterior Dia
Siguiente Dia »
Diario Semana Mensual Anual Personalizada
  Maxima: Minima: Media:
Temperatura: TemperatureC °F /  -17.8 °C 10.2 °F /  -12.1 °C 14.3 °F /  -9.8 °C
Punto de rocío: DewpointC °F /  -17.8 °C 7.0 °F /  -13.9 °C 9.6 °F /  -12.4 °C
Humedad: Humidity % 54 % 74 %
Velocidad del Viento: WindSpeedKMH mph /  0 km/h - 17 mph /  27.4 km/h
Ráfagas de viento: WindSpeedGustKMH mph /  0 km/h - -
Viento:- - WNW
Pression baro: PressurehPa in /  0 hPa 1007.3 in /  34107.2 hPa -
Précipitaciones: 0.0 in /  0 mm    
Historical Graphs
 
 
Datos de tabla para January 5, 2018
Tiempo Temperatura Punto de rocío Pression baro Viento Velocidad del Viento Ráfagas de viento Humedad Las precipitaciones Rate ( Hora )
TemperatureC °F /  -17.8 °C DewpointC °F /  -17.8 °C PressurehPa in /  0 hPa Calm     Humidity % HourlyPrecipMM in /  0 mm
00:00 13.3 °F /  -10.4 °C 9.8 °F /  -12.3 °C 1022.6 in /  34625.2 hPa NNW 9.3 mph /  15 km/h 9.3 mph /  15 km/h 79 % 0.0 in /  0 mm
00:07 13.4 °F /  -10.3 °C 9.8 °F /  -12.3 °C 1022.6 in /  34625.2 hPa NNW 8.0 mph /  12.9 km/h 8.0 mph /  12.9 km/h 79 % 0.0 in /  0 mm
00:08 13.4 °F /  -10.3 °C 9.8 °F /  -12.3 °C 1022.6 in /  34625.2 hPa NNW 8.0 mph /  12.9 km/h 8.0 mph /  12.9 km/h 79 % 0.0 in /  0 mm
00:13 13.3 °F /  -10.4 °C 9.8 °F /  -12.3 °C 1022.6 in /  34625.2 hPa North 9.3 mph /  15 km/h 9.3 mph /  15 km/h 79 % 0.0 in /  0 mm
00:15 13.3 °F /  -10.4 °C 9.8 °F /  -12.3 °C 1022.6 in /  34625.2 hPa North 7.4 mph /  11.9 km/h 7.4 mph /  11.9 km/h 79 % 0.0 in /  0 mm
00:17 13.3 °F /  -10.4 °C 9.8 °F /  -12.3 °C 1022.6 in /  34625.2 hPa North 7.4 mph /  11.9 km/h 7.4 mph /  11.9 km/h 79 % 0.0 in /  0 mm
00:22 13.3 °F /  -10.4 °C 9.8 °F /  -12.3 °C 1022.6 in /  34625.2 hPa NNW 11.1 mph /  17.9 km/h 11.1 mph /  17.9 km/h 79 % 0.0 in /  0 mm
00:27 13.4 °F /  -10.3 °C 9.9 °F /  -12.3 °C 1022.2 in /  34611.7 hPa NNW 7.4 mph /  11.9 km/h 7.4 mph /  11.9 km/h 79 % 0.0 in /  0 mm
00:32 13.4 °F /  -10.3 °C 9.9 °F /  -12.3 °C 1022.2 in /  34611.7 hPa North 8.0 mph /  12.9 km/h 8.0 mph /  12.9 km/h 79 % 0.0 in /  0 mm
00:34 13.4 °F /  -10.3 °C 9.9 °F /  -12.3 °C 1022.2 in /  34611.7 hPa North 5.6 mph /  9 km/h 5.6 mph /  9 km/h 79 % 0.0 in /  0 mm
00:39 13.3 °F /  -10.4 °C 9.8 °F /  -12.3 °C 1022.2 in /  34611.7 hPa NNW 7.4 mph /  11.9 km/h 7.4 mph /  11.9 km/h 79 % 0.0 in /  0 mm
00:40 13.3 °F /  -10.4 °C 9.8 °F /  -12.3 °C 1022.2 in /  34611.7 hPa NNW 7.4 mph /  11.9 km/h 7.4 mph /  11.9 km/h 79 % 0.0 in /  0 mm
00:45 13.3 °F /  -10.4 °C 9.8 °F /  -12.3 °C 1022.2 in /  34611.7 hPa NNW 5.6 mph /  9 km/h 5.6 mph /  9 km/h 79 % 0.0 in /  0 mm
00:47 13.3 °F /  -10.4 °C 9.8 °F /  -12.3 °C 1021.9 in /  34601.5 hPa NNW 5.6 mph /  9 km/h 5.6 mph /  9 km/h 79 % 0.0 in /  0 mm
00:52 13.3 °F /  -10.4 °C 9.8 °F /  -12.3 °C 1021.9 in /  34601.5 hPa NNW 7.4 mph /  11.9 km/h 7.4 mph /  11.9 km/h 79 % 0.0 in /  0 mm
00:54 13.4 °F /  -10.3 °C 9.8 °F /  -12.3 °C 1021.9 in /  34601.5 hPa NNW 5.6 mph /  9 km/h 5.6 mph /  9 km/h 79 % 0.0 in /  0 mm
00:59 13.4 °F /  -10.3 °C 9.8 °F /  -12.3 °C 1021.9 in /  34601.5 hPa NNW 5.6 mph /  9 km/h 5.6 mph /  9 km/h 79 % 0.0 in /  0 mm
01:02 13.4 °F /  -10.3 °C 9.8 °F /  -12.3 °C 1021.9 in /  34601.5 hPa NNW 7.4 mph /  11.9 km/h 7.4 mph /  11.9 km/h 79 % 0.0 in /  0 mm
01:07 13.3 °F /  -10.4 °C 9.8 °F /  -12.3 °C 1021.9 in /  34601.5 hPa NNW 5.6 mph /  9 km/h 5.6 mph /  9 km/h 79 % 0.0 in /  0 mm
01:12 13.3 °F /  -10.4 °C 9.6 °F /  -12.4 °C 1021.6 in /  34591.4 hPa NNW 5.6 mph /  9 km/h 5.6 mph /  9 km/h 78 % 0.0 in /  0 mm
01:14 13.3 °F /  -10.4 °C 9.5 °F /  -12.5 °C 1021.6 in /  34591.4 hPa NNW 7.4 mph /  11.9 km/h 7.4 mph /  11.9 km/h 78 % 0.0 in /  0 mm
01:16 13.3 °F /  -10.4 °C 9.5 °F /  -12.5 °C 1021.6 in /  34591.4 hPa NNW 8.0 mph /  12.9 km/h 8.0 mph /  12.9 km/h 78 % 0.0 in /  0 mm
01:22 13.2 °F /  -10.4 °C 9.4 °F /  -12.6 °C 1021.6 in /  34591.4 hPa NNW 8.0 mph /  12.9 km/h 8.0 mph /  12.9 km/h 78 % 0.0 in /  0 mm
01:26 13.1 °F /  -10.5 °C 9.6 °F /  -12.4 °C 1021.6 in /  34591.4 hPa North 8.0 mph /  12.9 km/h 8.0 mph /  12.9 km/h 79 % 0.0 in /  0 mm
01:31 13.0 °F /  -10.6 °C 9.4 °F /  -12.6 °C 1021.2 in /  34577.8 hPa North 5.6 mph /  9 km/h 6.1 mph /  9.8 km/h 79 % 0.0 in /  0 mm
01:33 12.9 °F /  -10.6 °C 9.4 °F /  -12.6 °C 1021.2 in /  34577.8 hPa North 8.0 mph /  12.9 km/h 8.0 mph /  12.9 km/h 79 % 0.0 in /  0 mm
01:40 12.8 °F /  -10.7 °C 9.4 °F /  -12.6 °C 1021.2 in /  34577.8 hPa North 9.3 mph /  15 km/h 9.3 mph /  15 km/h 80 % 0.0 in /  0 mm
01:45 12.8 °F /  -10.7 °C 9.4 °F /  -12.6 °C 1021.2 in /  34577.8 hPa North 9.3 mph /  15 km/h 9.3 mph /  15 km/h 80 % 0.0 in /  0 mm
01:47 12.7 °F /  -10.7 °C 9.3 °F /  -12.6 °C 1020.9 in /  34567.7 hPa North 7.4 mph /  11.9 km/h 7.4 mph /  11.9 km/h 80 % 0.0 in /  0 mm
01:52 12.7 °F /  -10.7 °C 9.3 °F /  -12.6 °C 1020.9 in /  34567.7 hPa North 9.7 mph /  15.6 km/h 9.7 mph /  15.6 km/h 80 % 0.0 in /  0 mm
01:55 12.6 °F /  -10.8 °C 9.2 °F /  -12.7 °C 1020.5 in /  34554.1 hPa North 9.3 mph /  15 km/h 9.3 mph /  15 km/h 80 % 0.0 in /  0 mm
01:58 12.6 °F /  -10.8 °C 9.2 °F /  -12.7 °C 1020.5 in /  34554.1 hPa North 9.3 mph /  15 km/h 9.3 mph /  15 km/h 80 % 0.0 in /  0 mm
02:03 12.6 °F /  -10.8 °C 9.2 °F /  -12.7 °C 1020.5 in /  34554.1 hPa North 11.1 mph /  17.9 km/h 11.1 mph /  17.9 km/h 80 % 0.0 in /  0 mm
02:05 12.6 °F /  -10.8 °C 9.2 °F /  -12.7 °C 1020.5 in /  34554.1 hPa North 9.3 mph /  15 km/h 9.3 mph /  15 km/h 80 % 0.0 in /  0 mm
02:10 12.5 °F /  -10.8 °C 9.2 °F /  -12.7 °C 1020.5 in /  34554.1 hPa North 5.6 mph /  9 km/h 5.8 mph /  9.3 km/h 80 % 0.0 in /  0 mm
02:11 12.5 °F /  -10.8 °C 9.2 °F /  -12.7 °C 1020.5 in /  34554.1 hPa North 8.0 mph /  12.9 km/h 8.0 mph /  12.9 km/h 80 % 0.0 in /  0 mm
02:16 12.4 °F /  -10.9 °C 9.2 °F /  -12.7 °C 1020.5 in /  34554.1 hPa North 9.7 mph /  15.6 km/h 9.7 mph /  15.6 km/h 81 % 0.0 in /  0 mm
02:21 12.3 °F /  -10.9 °C 9.2 °F /  -12.7 °C 1020.2 in /  34544 hPa North 9.3 mph /  15 km/h 9.3 mph /  15 km/h 81 % 0.0 in /  0 mm
02:25 12.3 °F /  -10.9 °C 9.1 °F /  -12.7 °C 1020.2 in /  34544 hPa North 9.3 mph /  15 km/h 9.3 mph /  15 km/h 81 % 0.0 in /  0 mm
02:30 12.2 °F /  -11 °C 9.1 °F /  -12.7 °C 1020.2 in /  34544 hPa North 9.7 mph /  15.6 km/h 9.7 mph /  15.6 km/h 81 % 0.0 in /  0 mm
02:31 12.2 °F /  -11 °C 9.1 °F /  -12.7 °C 1020.2 in /  34544 hPa North 9.7 mph /  15.6 km/h 9.7 mph /  15.6 km/h 81 % 0.0 in /  0 mm
02:36 12.2 °F /  -11 °C 9.0 °F /  -12.8 °C 1019.9 in /  34533.8 hPa NNW 9.3 mph /  15 km/h 9.3 mph /  15 km/h 81 % 0.0 in /  0 mm
02:39 12.2 °F /  -11 °C 9.0 °F /  -12.8 °C 1019.9 in /  34533.8 hPa NNW 9.3 mph /  15 km/h 9.3 mph /  15 km/h 81 % 0.0 in /  0 mm
02:44 12.2 °F /  -11 °C 9.1 °F /  -12.7 °C 1019.9 in /  34533.8 hPa North 9.3 mph /  15 km/h 9.3 mph /  15 km/h 81 % 0.0 in /  0 mm
02:45 12.2 °F /  -11 °C 9.1 °F /  -12.7 °C 1019.9 in /  34533.8 hPa NNW 8.0 mph /  12.9 km/h 8.0 mph /  12.9 km/h 81 % 0.0 in /  0 mm
02:49 12.2 °F /  -11 °C 9.1 °F /  -12.7 °C 1019.9 in /  34533.8 hPa North 11.3 mph /  18.2 km/h 11.3 mph /  18.2 km/h 81 % 0.0 in /  0 mm
02:54 12.2 °F /  -11 °C 9.0 °F /  -12.8 °C 1019.9 in /  34533.8 hPa North 11.1 mph /  17.9 km/h 11.1 mph /  17.9 km/h 81 % 0.0 in /  0 mm
02:55 12.2 °F /  -11 °C 9.0 °F /  -12.8 °C 1019.9 in /  34533.8 hPa North 8.0 mph /  12.9 km/h 11.3 mph /  18.2 km/h 81 % 0.0 in /  0 mm
02:57 12.1 °F /  -11.1 °C 8.9 °F /  -12.8 °C 1019.9 in /  34533.8 hPa North 11.1 mph /  17.9 km/h 11.1 mph /  17.9 km/h 81 % 0.0 in /  0 mm
03:02 12.1 °F /  -11.1 °C 8.9 °F /  -12.8 °C 1019.9 in /  34533.8 hPa North 9.3 mph /  15 km/h 9.3 mph /  15 km/h 81 % 0.0 in /  0 mm
03:04 12.0 °F /  -11.1 °C 8.8 °F /  -12.9 °C 1019.9 in /  34533.8 hPa North 9.3 mph /  15 km/h 9.3 mph /  15 km/h 81 % 0.0 in /  0 mm
03:06 12.0 °F /  -11.1 °C 8.8 °F /  -12.9 °C 1019.9 in /  34533.8 hPa North 11.1 mph /  17.9 km/h 11.1 mph /  17.9 km/h 81 % 0.0 in /  0 mm
03:11 11.9 °F /  -11.2 °C 8.8 °F /  -12.9 °C 1019.9 in /  34533.8 hPa NNW 7.4 mph /  11.9 km/h 7.4 mph /  11.9 km/h 81 % 0.0 in /  0 mm
03:14 12.0 °F /  -11.1 °C 8.8 °F /  -12.9 °C 1019.5 in /  34520.3 hPa NNW 9.3 mph /  15 km/h 9.3 mph /  15 km/h 81 % 0.0 in /  0 mm
03:19 12.0 °F /  -11.1 °C 8.8 °F /  -12.9 °C 1019.5 in /  34520.3 hPa NNW 6.4 mph /  10.3 km/h 6.4 mph /  10.3 km/h 81 % 0.0 in /  0 mm
03:23 12.0 °F /  -11.1 °C 8.8 °F /  -12.9 °C 1019.5 in /  34520.3 hPa NNW 9.7 mph /  15.6 km/h 9.7 mph /  15.6 km/h 81 % 0.0 in /  0 mm
03:28 12.1 °F /  -11.1 °C 8.9 °F /  -12.8 °C 1019.5 in /  34520.3 hPa NNW 9.3 mph /  15 km/h 9.3 mph /  15 km/h 81 % 0.0 in /  0 mm
03:31 12.1 °F /  -11.1 °C 8.9 °F /  -12.8 °C 1019.2 in /  34510.1 hPa North 9.3 mph /  15 km/h 9.3 mph /  15 km/h 81 % 0.0 in /  0 mm
03:36 12.0 °F /  -11.1 °C 8.8 °F /  -12.9 °C 1019.5 in /  34520.3 hPa North 11.1 mph /  17.9 km/h 11.1 mph /  17.9 km/h 81 % 0.0 in /  0 mm
03:41 11.9 °F /  -11.2 °C 8.7 °F /  -12.9 °C 1019.5 in /  34520.3 hPa NNW 7.4 mph /  11.9 km/h 7.4 mph /  11.9 km/h 81 % 0.0 in /  0 mm
03:46 11.8 °F /  -11.2 °C 8.7 °F /  -12.9 °C 1019.2 in /  34510.1 hPa North 11.1 mph /  17.9 km/h 11.1 mph /  17.9 km/h 81 % 0.0 in /  0 mm
03:49 11.8 °F /  -11.2 °C 8.6 °F /  -13 °C 1019.2 in /  34510.1 hPa NNW 13.0 mph /  20.9 km/h 13.0 mph /  20.9 km/h 81 % 0.0 in /  0 mm
03:53 11.7 °F /  -11.3 °C 8.6 °F /  -13 °C 1019.2 in /  34510.1 hPa North 11.1 mph /  17.9 km/h 11.1 mph /  17.9 km/h 81 % 0.0 in /  0 mm
03:54 11.7 °F /  -11.3 °C 8.6 °F /  -13 °C 1019.2 in /  34510.1 hPa NNW 9.3 mph /  15 km/h 9.3 mph /  15 km/h 81 % 0.0 in /  0 mm
03:59 11.7 °F /  -11.3 °C 8.5 °F /  -13.1 °C 1019.2 in /  34510.1 hPa NNW 9.3 mph /  15 km/h 9.3 mph /  15 km/h 81 % 0.0 in /  0 mm
04:00 11.7 °F /  -11.3 °C 8.5 °F /  -13.1 °C 1019.2 in /  34510.1 hPa NNW 11.1 mph /  17.9 km/h 11.1 mph /  17.9 km/h 81 % 0.0 in /  0 mm
04:05 11.7 °F /  -11.3 °C 8.5 °F /  -13.1 °C 1019.2 in /  34510.1 hPa North 9.3 mph /  15 km/h 9.3 mph /  15 km/h 81 % 0.0 in /  0 mm
04:09 11.6 °F /  -11.3 °C 8.4 °F /  -13.1 °C 1019.2 in /  34510.1 hPa NNW 9.3 mph /  15 km/h 9.3 mph /  15 km/h 81 % 0.0 in /  0 mm
04:14 11.7 °F /  -11.3 °C 8.7 °F /  -12.9 °C 1019.2 in /  34510.1 hPa NW 5.6 mph /  9 km/h 5.6 mph /  9 km/h 82 % 0.0 in /  0 mm
04:19 11.7 °F /  -11.3 °C 8.7 °F /  -12.9 °C 1019.2 in /  34510.1 hPa NW 4.8 mph /  7.7 km/h 4.8 mph /  7.7 km/h 82 % 0.0 in /  0 mm
04:25 11.7 °F /  -11.3 °C 8.7 °F /  -12.9 °C 1019.2 in /  34510.1 hPa NW 5.6 mph /  9 km/h   82 % 0.0 in /  0 mm
04:30 11.8 °F /  -11.2 °C 8.8 °F /  -12.9 °C 1019.2 in /  34510.1 hPa NW 6.4 mph /  10.3 km/h 6.4 mph /  10.3 km/h 82 % 0.0 in /  0 mm
04:31 11.8 °F /  -11.2 °C 8.6 °F /  -13 °C 1019.2 in /  34510.1 hPa NW 7.4 mph /  11.9 km/h 7.4 mph /  11.9 km/h 81 % 0.0 in /  0 mm
04:34 11.8 °F /  -11.2 °C 8.7 °F /  -12.9 °C 1019.2 in /  34510.1 hPa NNW 8.0 mph /  12.9 km/h 8.0 mph /  12.9 km/h 81 % 0.0 in /  0 mm
04:39 12.0 °F /  -11.1 °C 8.8 °F /  -12.9 °C 1019.2 in /  34510.1 hPa NNW 5.6 mph /  9 km/h 5.6 mph /  9 km/h 81 % 0.0 in /  0 mm
04:40 12.0 °F /  -11.1 °C 8.8 °F /  -12.9 °C 1019.2 in /  34510.1 hPa NNW 5.6 mph /  9 km/h 5.6 mph /  9 km/h 81 % 0.0 in /  0 mm
04:45 12.2 °F /  -11 °C 8.8 °F /  -12.9 °C 1018.8 in /  34496.6 hPa NNW 5.6 mph /  9 km/h 5.6 mph /  9 km/h 80 % 0.0 in /  0 mm
04:50 12.3 °F /  -10.9 °C 8.9 °F /  -12.8 °C 1018.8 in /  34496.6 hPa NNW 5.6 mph /  9 km/h 5.6 mph /  9 km/h 80 % 0.0 in /  0 mm
04:55 12.3 °F /  -10.9 °C 8.7 °F /  -12.9 °C 1018.8 in /  34496.6 hPa NNW 5.6 mph /  9 km/h 5.6 mph /  9 km/h 79 % 0.0 in /  0 mm
04:58 12.3 °F /  -10.9 °C 8.7 °F /  -12.9 °C 1018.8 in /  34496.6 hPa NNW 5.6 mph /  9 km/h 5.6 mph /  9 km/h 79 % 0.0 in /  0 mm
05:03 12.3 °F /  -10.9 °C 8.6 °F /  -13 °C 1018.8 in /  34496.6 hPa NNW 5.6 mph /  9 km/h 5.6 mph /  9 km/h 78 % 0.0 in /  0 mm
05:04 12.4 °F /  -10.9 °C 8.7 °F /  -12.9 °C 1018.8 in /  34496.6 hPa NNW 5.6 mph /  9 km/h 5.6 mph /  9 km/h 78 % 0.0 in /  0 mm
05:09 12.3 °F /  -10.9 °C 8.6 °F /  -13 °C 1018.8 in /  34496.6 hPa NNW 5.6 mph /  9 km/h 5.6 mph /  9 km/h 78 % 0.0 in /  0 mm
05:10 12.3 °F /  -10.9 °C 8.6 °F /  -13 °C 1018.8 in /  34496.6 hPa NNW 5.6 mph /  9 km/h 5.6 mph /  9 km/h 78 % 0.0 in /  0 mm
05:15 12.2 °F /  -11 °C 8.3 °F /  -13.2 °C 1018.8 in /  34496.6 hPa NNW 7.4 mph /  11.9 km/h 7.4 mph /  11.9 km/h 77 % 0.0 in /  0 mm
05:17 12.2 °F /  -11 °C 8.3 °F /  -13.2 °C 1018.8 in /  34496.6 hPa NNW 7.4 mph /  11.9 km/h 7.4 mph /  11.9 km/h 77 % 0.0 in /  0 mm
05:21 12.1 °F /  -11.1 °C 8.3 °F /  -13.2 °C 1018.8 in /  34496.6 hPa NNW 6.4 mph /  10.3 km/h 6.4 mph /  10.3 km/h 78 % 0.0 in /  0 mm
05:26 12.0 °F /  -11.1 °C 8.3 °F /  -13.2 °C 1018.5 in /  34486.4 hPa NNW 5.6 mph /  9 km/h 5.6 mph /  9 km/h 78 % 0.0 in /  0 mm
05:27 12.0 °F /  -11.1 °C 8.3 °F /  -13.2 °C 1018.5 in /  34486.4 hPa NNW 5.6 mph /  9 km/h 5.6 mph /  9 km/h 78 % 0.0 in /  0 mm
05:30 11.9 °F /  -11.2 °C 8.2 °F /  -13.2 °C 1018.8 in /  34496.6 hPa NNW 5.6 mph /  9 km/h 5.6 mph /  9 km/h 78 % 0.0 in /  0 mm
05:32 11.8 °F /  -11.2 °C 8.1 °F /  -13.3 °C 1018.8 in /  34496.6 hPa NNW 6.4 mph /  10.3 km/h 6.4 mph /  10.3 km/h 78 % 0.0 in /  0 mm
05:37 11.7 °F /  -11.3 °C 7.9 °F /  -13.4 °C 1018.8 in /  34496.6 hPa NW 8.0 mph /  12.9 km/h 8.0 mph /  12.9 km/h 78 % 0.0 in /  0 mm
05:38 11.7 °F /  -11.3 °C 7.9 °F /  -13.4 °C 1018.8 in /  34496.6 hPa NW 8.0 mph /  12.9 km/h 8.0 mph /  12.9 km/h 78 % 0.0 in /  0 mm
05:42 11.7 °F /  -11.3 °C 8.0 °F /  -13.3 °C 1018.8 in /  34496.6 hPa NNW 8.0 mph /  12.9 km/h 8.0 mph /  12.9 km/h 78 % 0.0 in /  0 mm
05:44 11.7 °F /  -11.3 °C 7.9 °F /  -13.4 °C 1018.5 in /  34486.4 hPa NNW 7.4 mph /  11.9 km/h 7.4 mph /  11.9 km/h 78 % 0.0 in /  0 mm
05:47 11.4 °F /  -11.4 °C 7.7 °F /  -13.5 °C 1018.5 in /  34486.4 hPa NNW 9.3 mph /  15 km/h 9.3 mph /  15 km/h 78 % 0.0 in /  0 mm
05:49 11.3 °F /  -11.5 °C 7.6 °F /  -13.6 °C 1018.5 in /  34486.4 hPa NNW 11.3 mph /  18.2 km/h 11.3 mph /  18.2 km/h 78 % 0.0 in /  0 mm
05:54 10.9 °F /  -11.7 °C 7.4 °F /  -13.7 °C 1018.5 in /  34486.4 hPa North 9.7 mph /  15.6 km/h 9.7 mph /  15.6 km/h 79 % 0.0 in /  0 mm
05:59 10.7 °F /  -11.8 °C 7.4 °F /  -13.7 °C 1018.5 in /  34486.4 hPa NNW 5.6 mph /  9 km/h 5.6 mph /  9 km/h 80 % 0.0 in /  0 mm
06:00 10.7 °F /  -11.8 °C 7.6 °F /  -13.6 °C 1018.5 in /  34486.4 hPa NNW 6.4 mph /  10.3 km/h 6.4 mph /  10.3 km/h 81 % 0.0 in /  0 mm
06:05 10.7 °F /  -11.8 °C 7.6 °F /  -13.6 °C 1018.5 in /  34486.4 hPa NNW 11.1 mph /  17.9 km/h 11.1 mph /  17.9 km/h 81 % 0.0 in /  0 mm
06:06 10.7 °F /  -11.8 °C 7.6 °F /  -13.6 °C 1018.5 in /  34486.4 hPa NNW 11.1 mph /  17.9 km/h 11.1 mph /  17.9 km/h 81 % 0.0 in /  0 mm
06:11 10.7 °F /  -11.8 °C 7.6 °F /  -13.6 °C 1018.5 in /  34486.4 hPa NNW 9.3 mph /  15 km/h 9.3 mph /  15 km/h 81 % 0.0 in /  0 mm
06:15 10.7 °F /  -11.8 °C 7.6 °F /  -13.6 °C 1018.5 in /  34486.4 hPa NNW 6.4 mph /  10.3 km/h 6.4 mph /  10.3 km/h 81 % 0.0 in /  0 mm
06:20 10.7 °F /  -11.8 °C 7.6 °F /  -13.6 °C 1018.5 in /  34486.4 hPa NNW 6.4 mph /  10.3 km/h 6.4 mph /  10.3 km/h 81 % 0.0 in /  0 mm
06:25 10.6 °F /  -11.9 °C 7.4 °F /  -13.7 °C 1018.5 in /  34486.4 hPa North 9.3 mph /  15 km/h 9.3 mph /  15 km/h 81 % 0.0 in /  0 mm
06:27 10.5 °F /  -11.9 °C 7.4 °F /  -13.7 °C 1018.5 in /  34486.4 hPa North 9.7 mph /  15.6 km/h 9.7 mph /  15.6 km/h 81 % 0.0 in /  0 mm
06:32 10.4 °F /  -12 °C 7.4 °F /  -13.7 °C 1018.5 in /  34486.4 hPa NNW 11.1 mph /  17.9 km/h 11.1 mph /  17.9 km/h 82 % 0.0 in /  0 mm
06:36 10.4 °F /  -12 °C 7.4 °F /  -13.7 °C 1018.5 in /  34486.4 hPa North 13.0 mph /  20.9 km/h 13.0 mph /  20.9 km/h 82 % 0.0 in /  0 mm
06:38 10.4 °F /  -12 °C 7.4 °F /  -13.7 °C 1018.5 in /  34486.4 hPa North 11.1 mph /  17.9 km/h 11.1 mph /  17.9 km/h 82 % 0.0 in /  0 mm
06:39 10.3 °F /  -12.1 °C 7.4 °F /  -13.7 °C 1018.5 in /  34486.4 hPa North 9.3 mph /  15 km/h 9.3 mph /  15 km/h 82 % 0.0 in /  0 mm
06:42 10.3 °F /  -12.1 °C 7.4 °F /  -13.7 °C 1018.5 in /  34486.4 hPa North 11.1 mph /  17.9 km/h 11.1 mph /  17.9 km/h 82 % 0.0 in /  0 mm
06:47 10.2 °F /  -12.1 °C 7.3 °F /  -13.7 °C 1018.5 in /  34486.4 hPa NNW 13.0 mph /  20.9 km/h 13.0 mph /  20.9 km/h 82 % 0.0 in /  0 mm
06:52 10.3 °F /  -12.1 °C 7.3 °F /  -13.7 °C 1018.5 in /  34486.4 hPa NNW 7.4 mph /  11.9 km/h 7.4 mph /  11.9 km/h 82 % 0.0 in /  0 mm
06:57 10.3 °F /  -12.1 °C 7.4 °F /  -13.7 °C 1018.5 in /  34486.4 hPa NNW 7.4 mph /  11.9 km/h 7.4 mph /  11.9 km/h 82 % 0.0 in /  0 mm
06:58 10.3 °F /  -12.1 °C 7.4 °F /  -13.7 °C 1018.5 in /  34486.4 hPa NNW 8.0 mph /  12.9 km/h 8.0 mph /  12.9 km/h 82 % 0.0 in /  0 mm
07:03 10.4 °F /  -12 °C 7.5 °F /  -13.6 °C 1018.5 in /  34486.4 hPa NNW 9.7 mph /  15.6 km/h 9.7 mph /  15.6 km/h 82 % 0.0 in /  0 mm
07:04 10.4 °F /  -12 °C 7.5 °F /  -13.6 °C 1018.5 in /  34486.4 hPa NNW 9.3 mph /  15 km/h 9.3 mph /  15 km/h 82 % 0.0 in /  0 mm
07:09 10.5 °F /  -11.9 °C 7.6 °F /  -13.6 °C 1018.5 in /  34486.4 hPa NNW 6.4 mph /  10.3 km/h 6.4 mph /  10.3 km/h 82 % 0.0 in /  0 mm
07:10 10.5 °F /  -11.9 °C 7.6 °F /  -13.6 °C 1018.5 in /  34486.4 hPa NNW 5.6 mph /  9 km/h 5.6 mph /  9 km/h 82 % 0.0 in /  0 mm
07:15 10.6 °F /  -11.9 °C 7.4 °F /  -13.7 °C 1018.5 in /  34486.4 hPa NNW 5.6 mph /  9 km/h 5.6 mph /  9 km/h 81 % 0.0 in /  0 mm
07:19 10.6 °F /  -11.9 °C 7.4 °F /  -13.7 °C 1018.8 in /  34496.6 hPa NNW 6.4 mph /  10.3 km/h 6.4 mph /  10.3 km/h 81 % 0.0 in /  0 mm
07:24 10.6 °F /  -11.9 °C 7.5 °F /  -13.6 °C 1018.8 in /  34496.6 hPa NNW 6.4 mph /  10.3 km/h 6.4 mph /  10.3 km/h 81 % 0.0 in /  0 mm
07:29 10.6 °F /  -11.9 °C 7.5 °F /  -13.6 °C 1018.8 in /  34496.6 hPa WNW 5.6 mph /  9 km/h 5.6 mph /  9 km/h 81 % 0.0 in /  0 mm
07:32 10.6 °F /  -11.9 °C 7.5 °F /  -13.6 °C 1018.8 in /  34496.6 hPa WNW 3.7 mph /  6 km/h 3.7 mph /  6 km/h 81 % 0.0 in /  0 mm
07:35 10.4 °F /  -12 °C 7.2 °F /  -13.8 °C 1018.8 in /  34496.6 hPa NW 3.7 mph /  6 km/h 3.7 mph /  6 km/h 80 % 0.0 in /  0 mm
07:40 10.4 °F /  -12 °C 7.3 °F /  -13.7 °C 1018.8 in /  34496.6 hPa NW 3.7 mph /  6 km/h 3.7 mph /  6 km/h 81 % 0.0 in /  0 mm
07:42 10.3 °F /  -12.1 °C 7.2 °F /  -13.8 °C 1018.8 in /  34496.6 hPa NW 5.6 mph /  9 km/h 5.6 mph /  9 km/h 81 % 0.0 in /  0 mm
07:43 10.3 °F /  -12.1 °C 7.2 °F /  -13.8 °C 1018.8 in /  34496.6 hPa NW 5.6 mph /  9 km/h 5.6 mph /  9 km/h 81 % 0.0 in /  0 mm
07:48 10.3 °F /  -12.1 °C 7.2 °F /  -13.8 °C 1018.5 in /  34486.4 hPa NW 5.6 mph /  9 km/h 5.6 mph /  9 km/h 81 % 0.0 in /  0 mm
07:53 10.4 °F /  -12 °C 7.3 °F /  -13.7 °C 1018.5 in /  34486.4 hPa North 11.1 mph /  17.9 km/h 11.1 mph /  17.9 km/h 81 % 0.0 in /  0 mm
07:55 10.4 °F /  -12 °C 7.2 °F /  -13.8 °C 1018.5 in /  34486.4 hPa NNW 9.3 mph /  15 km/h 9.3 mph /  15 km/h 80 % 0.0 in /  0 mm
08:00 10.4 °F /  -12 °C 7.2 °F /  -13.8 °C 1018.5 in /  34486.4 hPa NNW 11.1 mph /  17.9 km/h 11.1 mph /  17.9 km/h 80 % 0.0 in /  0 mm
08:04 10.4 °F /  -12 °C 7.2 °F /  -13.8 °C 1018.5 in /  34486.4 hPa North 5.6 mph /  9 km/h 5.6 mph /  9 km/h 80 % 0.0 in /  0 mm
08:06 10.4 °F /  -12 °C 7.2 °F /  -13.8 °C 1018.5 in /  34486.4 hPa North 8.0 mph /  12.9 km/h 8.0 mph /  12.9 km/h 80 % 0.0 in /  0 mm
08:11 10.3 °F /  -12.1 °C 7.0 °F /  -13.9 °C 1018.5 in /  34486.4 hPa NNW 11.1 mph /  17.9 km/h 11.1 mph /  17.9 km/h 80 % 0.0 in /  0 mm
08:16 10.2 °F /  -12.1 °C 7.1 °F /  -13.8 °C 1018.5 in /  34486.4 hPa NW 13.0 mph /  20.9 km/h 13.0 mph /  20.9 km/h 81 % 0.0 in /  0 mm
08:17 10.2 °F /  -12.1 °C 7.1 °F /  -13.8 °C 1018.5 in /  34486.4 hPa NNW 11.1 mph /  17.9 km/h 11.1 mph /  17.9 km/h 81 % 0.0 in /  0 mm
08:22 10.2 °F /  -12.1 °C 7.1 °F /  -13.8 °C 1018.5 in /  34486.4 hPa North 13.0 mph /  20.9 km/h 13.0 mph /  20.9 km/h 81 % 0.0 in /  0 mm
08:23 10.2 °F /  -12.1 °C 7.1 °F /  -13.8 °C 1018.5 in /  34486.4 hPa North 14.8 mph /  23.8 km/h 14.8 mph /  23.8 km/h 81 % 0.0 in /  0 mm
08:25 10.2 °F /  -12.1 °C 7.1 °F /  -13.8 °C 1018.5 in /  34486.4 hPa North 11.1 mph /  17.9 km/h 11.1 mph /  17.9 km/h 81 % 0.0 in /  0 mm
08:30 10.3 °F /  -12.1 °C 7.2 °F /  -13.8 °C 1018.5 in /  34486.4 hPa North 14.8 mph /  23.8 km/h 14.8 mph /  23.8 km/h 81 % 0.0 in /  0 mm
08:31 10.2 °F /  -12.1 °C 7.1 °F /  -13.8 °C 1018.5 in /  34486.4 hPa North 14.8 mph /  23.8 km/h 14.8 mph /  23.8 km/h 81 % 0.0 in /  0 mm
08:36 10.2 °F /  -12.1 °C 7.1 °F /  -13.8 °C 1018.5 in /  34486.4 hPa North 14.8 mph /  23.8 km/h 14.8 mph /  23.8 km/h 81 % 0.0 in /  0 mm
08:41 10.3 °F /  -12.1 °C 7.2 °F /  -13.8 °C 1018.5 in /  34486.4 hPa NNW 14.8 mph /  23.8 km/h 14.8 mph /  23.8 km/h 81 % 0.0 in /  0 mm
08:46 10.3 °F /  -12.1 °C 7.2 °F /  -13.8 °C 1018.5 in /  34486.4 hPa North 14.8 mph /  23.8 km/h 14.8 mph /  23.8 km/h 81 % 0.0 in /  0 mm
08:49 10.4 °F /  -12 °C 7.3 °F /  -13.7 °C 1018.5 in /  34486.4 hPa North 14.8 mph /  23.8 km/h 14.8 mph /  23.8 km/h 81 % 0.0 in /  0 mm
08:52 10.4 °F /  -12 °C 7.3 °F /  -13.7 °C 1018.5 in /  34486.4 hPa WNW 13.0 mph /  20.9 km/h 13.0 mph /  20.9 km/h 81 % 0.0 in /  0 mm
08:57 10.6 °F /  -11.9 °C 7.5 °F /  -13.6 °C 1018.2 in /  34476.3 hPa North 17.7 mph /  28.5 km/h 17.7 mph /  28.5 km/h 81 % 0.0 in /  0 mm
09:02 11.4 °F /  -11.4 °C 8.2 °F /  -13.2 °C 1018.2 in /  34476.3 hPa NNW 11.1 mph /  17.9 km/h 11.1 mph /  17.9 km/h 81 % 0.0 in /  0 mm
09:03 11.4 °F /  -11.4 °C 8.2 °F /  -13.2 °C 1018.2 in /  34476.3 hPa NNW 7.4 mph /  11.9 km/h 7.4 mph /  11.9 km/h 81 % 0.0 in /  0 mm
09:08 11.7 °F /  -11.3 °C 8.2 °F /  -13.2 °C 1018.2 in /  34476.3 hPa NNW 8.0 mph /  12.9 km/h 8.0 mph /  12.9 km/h 79 % 0.0 in /  0 mm
09:10 11.8 °F /  -11.2 °C 8.3 °F /  -13.2 °C 1018.5 in /  34486.4 hPa North 13.0 mph /  20.9 km/h 13.0 mph /  20.9 km/h 79 % 0.0 in /  0 mm
09:14 11.9 °F /  -11.2 °C 8.2 °F /  -13.2 °C 1018.5 in /  34486.4 hPa NNW 5.6 mph /  9 km/h 5.6 mph /  9 km/h 78 % 0.0 in /  0 mm
09:18 12.1 °F /  -11.1 °C 8.3 °F /  -13.2 °C 1018.5 in /  34486.4 hPa NNW 6.4 mph /  10.3 km/h 6.4 mph /  10.3 km/h 78 % 0.0 in /  0 mm
09:20 12.1 °F /  -11.1 °C 8.3 °F /  -13.2 °C 1018.5 in /  34486.4 hPa NNW 11.1 mph /  17.9 km/h 11.1 mph /  17.9 km/h 78 % 0.0 in /  0 mm
09:24 12.2 °F /  -11 °C 8.3 °F /  -13.2 °C 1018.5 in /  34486.4 hPa North 9.7 mph /  15.6 km/h 9.7 mph /  15.6 km/h 77 % 0.0 in /  0 mm
09:26 12.2 °F /  -11 °C 8.1 °F /  -13.3 °C 1018.2 in /  34476.3 hPa North 11.1 mph /  17.9 km/h 11.1 mph /  17.9 km/h 76 % 0.0 in /  0 mm
09:30 12.1 °F /  -11.1 °C 7.8 °F /  -13.4 °C 1018.2 in /  34476.3 hPa NNW 11.1 mph /  17.9 km/h 11.1 mph /  17.9 km/h 75 % 0.0 in /  0 mm
09:32 12.1 °F /  -11.1 °C 7.9 °F /  -13.4 °C 1018.5 in /  34486.4 hPa North 16.7 mph /  26.9 km/h 16.7 mph /  26.9 km/h 76 % 0.0 in /  0 mm
09:35 11.8 °F /  -11.2 °C 7.6 °F /  -13.6 °C 1018.2 in /  34476.3 hPa North 13.0 mph /  20.9 km/h 13.0 mph /  20.9 km/h 75 % 0.0 in /  0 mm
09:40 11.9 °F /  -11.2 °C 7.8 °F /  -13.4 °C 1018.5 in /  34486.4 hPa NNW 9.3 mph /  15 km/h 9.3 mph /  15 km/h 76 % 0.0 in /  0 mm
09:43 12.1 °F /  -11.1 °C 7.9 °F /  -13.4 °C 1018.5 in /  34486.4 hPa North 9.3 mph /  15 km/h 9.3 mph /  15 km/h 76 % 0.0 in /  0 mm
09:48 12.3 °F /  -10.9 °C 8.2 °F /  -13.2 °C 1018.5 in /  34486.4 hPa North 11.1 mph /  17.9 km/h 11.1 mph /  17.9 km/h 76 % 0.0 in /  0 mm
09:50 12.4 °F /  -10.9 °C 8.3 °F /  -13.2 °C 1018.5 in /  34486.4 hPa North 5.6 mph /  9 km/h 5.6 mph /  9 km/h 76 % 0.0 in /  0 mm
09:51 12.5 °F /  -10.8 °C 8.4 °F /  -13.1 °C 1018.2 in /  34476.3 hPa NNW 5.6 mph /  9 km/h 5.6 mph /  9 km/h 76 % 0.0 in /  0 mm
09:55 12.7 °F /  -10.7 °C 8.4 °F /  -13.1 °C 1018.2 in /  34476.3 hPa North 9.3 mph /  15 km/h 9.3 mph /  15 km/h 75 % 0.0 in /  0 mm
10:00 12.9 °F /  -10.6 °C 8.6 °F /  -13 °C 1018.2 in /  34476.3 hPa North 3.7 mph /  6 km/h 3.7 mph /  6 km/h 75 % 0.0 in /  0 mm
10:05 13.2 °F /  -10.4 °C 8.8 °F /  -12.9 °C 1018.2 in /  34476.3 hPa North 5.6 mph /  9 km/h 5.6 mph /  9 km/h 75 % 0.0 in /  0 mm
10:06 13.2 °F /  -10.4 °C 8.9 °F /  -12.8 °C 1018.2 in /  34476.3 hPa North 6.4 mph /  10.3 km/h 6.4 mph /  10.3 km/h 75 % 0.0 in /  0 mm
10:12 13.4 °F /  -10.3 °C 8.7 °F /  -12.9 °C 1018.2 in /  34476.3 hPa NNE 9.3 mph /  15 km/h 9.3 mph /  15 km/h 73 % 0.0 in /  0 mm
10:17 13.4 °F /  -10.3 °C 8.7 °F /  -12.9 °C 1018.2 in /  34476.3 hPa NNE 3.7 mph /  6 km/h 3.7 mph /  6 km/h 73 % 0.0 in /  0 mm
10:22 13.7 °F /  -10.2 °C 8.9 °F /  -12.8 °C 1018.2 in /  34476.3 hPa NNE 1.9 mph /  3.1 km/h 1.9 mph /  3.1 km/h 73 % 0.0 in /  0 mm
10:27 14.0 °F /  -10 °C 9.2 °F /  -12.7 °C 1018.2 in /  34476.3 hPa NNE 5.6 mph /  9 km/h 5.6 mph /  9 km/h 73 % 0.0 in /  0 mm
10:28 14.1 °F /  -9.9 °C 9.3 °F /  -12.6 °C 1018.2 in /  34476.3 hPa NNE 5.6 mph /  9 km/h 5.6 mph /  9 km/h 73 % 0.0 in /  0 mm
10:31 14.1 °F /  -9.9 °C 9.1 °F /  -12.7 °C 1018.2 in /  34476.3 hPa NE 9.3 mph /  15 km/h 9.3 mph /  15 km/h 72 % 0.0 in /  0 mm
10:36 14.2 °F /  -9.9 °C 9.4 °F /  -12.6 °C 1017.8 in /  34462.7 hPa NE 7.4 mph /  11.9 km/h 7.4 mph /  11.9 km/h 73 % 0.0 in /  0 mm
10:37 14.3 °F /  -9.8 °C 9.5 °F /  -12.5 °C 1017.8 in /  34462.7 hPa NE 5.6 mph /  9 km/h 5.6 mph /  9 km/h 73 % 0.0 in /  0 mm
10:42 14.6 °F /  -9.7 °C 10.0 °F /  -12.2 °C 1017.8 in /  34462.7 hPa NW 11.1 mph /  17.9 km/h 11.1 mph /  17.9 km/h 74 % 0.0 in /  0 mm
10:47 15.1 °F /  -9.4 °C 10.1 °F /  -12.2 °C 1017.8 in /  34462.7 hPa West 27.8 mph /  44.7 km/h 27.8 mph /  44.7 km/h 72 % 0.0 in /  0 mm
10:50 15.6 °F /  -9.1 °C 10.2 °F /  -12.1 °C 1017.8 in /  34462.7 hPa West 20.9 mph /  33.6 km/h 20.9 mph /  33.6 km/h 70 % 0.0 in /  0 mm
10:51 15.8 °F /  -9 °C 10.3 °F /  -12.1 °C 1017.8 in /  34462.7 hPa West 17.7 mph /  28.5 km/h 17.7 mph /  28.5 km/h 70 % 0.0 in /  0 mm
10:56 16.4 °F /  -8.7 °C 10.2 °F /  -12.1 °C 1017.8 in /  34462.7 hPa WSW 14.8 mph /  23.8 km/h 14.8 mph /  23.8 km/h 67 % 0.0 in /  0 mm
10:57 16.4 °F /  -8.7 °C 10.3 °F /  -12.1 °C 1017.8 in /  34462.7 hPa West 14.5 mph /  23.3 km/h 14.5 mph /  23.3 km/h 67 % 0.0 in /  0 mm
11:02 16.7 °F /  -8.5 °C 10.1 °F /  -12.2 °C 1017.8 in /  34462.7 hPa WSW 19.3 mph /  31.1 km/h 19.3 mph /  31.1 km/h 65 % 0.0 in /  0 mm
11:07 16.9 °F /  -8.4 °C 10.1 °F /  -12.2 °C 1017.8 in /  34462.7 hPa WSW 24.1 mph /  38.8 km/h 24.1 mph /  38.8 km/h 64 % 0.0 in /  0 mm
11:08 16.9 °F /  -8.4 °C 10.1 °F /  -12.2 °C 1017.8 in /  34462.7 hPa WSW 27.8 mph /  44.7 km/h 27.8 mph /  44.7 km/h 64 % 0.0 in /  0 mm
11:10 17.0 °F /  -8.3 °C 9.9 °F /  -12.3 °C 1017.8 in /  34462.7 hPa WSW 24.1 mph /  38.8 km/h 24.1 mph /  38.8 km/h 63 % 0.0 in /  0 mm
11:13 17.1 °F /  -8.3 °C 9.9 °F /  -12.3 °C 1017.8 in /  34462.7 hPa WSW 14.8 mph /  23.8 km/h 14.8 mph /  23.8 km/h 63 % 0.0 in /  0 mm
11:16 17.1 °F /  -8.3 °C 10.0 °F /  -12.2 °C 1017.5 in /  34452.6 hPa WSW 22.2 mph /  35.7 km/h 22.2 mph /  35.7 km/h 63 % 0.0 in /  0 mm
11:21 17.2 °F /  -8.2 °C 10.1 °F /  -12.2 °C 1017.5 in /  34452.6 hPa WSW 27.8 mph /  44.7 km/h 27.8 mph /  44.7 km/h 63 % 0.0 in /  0 mm
11:26 17.1 °F /  -8.3 °C 10.5 °F /  -11.9 °C 1017.5 in /  34452.6 hPa WSW 27.8 mph /  44.7 km/h 27.8 mph /  44.7 km/h 65 % 0.0 in /  0 mm
11:31 16.8 °F /  -8.4 °C 11.1 °F /  -11.6 °C 1017.5 in /  34452.6 hPa WSW 22.2 mph /  35.7 km/h 22.2 mph /  35.7 km/h 69 % 0.0 in /  0 mm
11:33 16.7 °F /  -8.5 °C 10.8 °F /  -11.8 °C 1017.5 in /  34452.6 hPa West 24.1 mph /  38.8 km/h 24.1 mph /  38.8 km/h 68 % 0.0 in /  0 mm
11:36 16.7 °F /  -8.5 °C 10.5 °F /  -11.9 °C 1017.5 in /  34452.6 hPa West 19.3 mph /  31.1 km/h 19.3 mph /  31.1 km/h 67 % 0.0 in /  0 mm
11:41 17.0 °F /  -8.3 °C 9.9 °F /  -12.3 °C 1017.5 in /  34452.6 hPa SW 25.9 mph /  41.7 km/h 25.9 mph /  41.7 km/h 63 % 0.0 in /  0 mm
11:46 17.3 °F /  -8.2 °C 9.9 °F /  -12.3 °C 1017.2 in /  34442.4 hPa WSW 27.8 mph /  44.7 km/h 27.8 mph /  44.7 km/h 62 % 0.0 in /  0 mm
11:47 17.3 °F /  -8.2 °C 9.7 °F /  -12.4 °C 1017.2 in /  34442.4 hPa West 25.9 mph /  41.7 km/h 25.9 mph /  41.7 km/h 61 % 0.0 in /  0 mm
11:51 17.4 °F /  -8.1 °C 10.1 °F /  -12.2 °C 1017.2 in /  34442.4 hPa West 25.9 mph /  41.7 km/h 25.9 mph /  41.7 km/h 62 % 0.0 in /  0 mm
11:57 17.3 °F /  -8.2 °C 10.6 °F /  -11.9 °C 1017.2 in /  34442.4 hPa WSW 25.7 mph /  41.4 km/h 25.7 mph /  41.4 km/h 65 % 0.0 in /  0 mm
11:58 17.2 °F /  -8.2 °C 10.6 °F /  -11.9 °C 1017.2 in /  34442.4 hPa WSW 29.0 mph /  46.7 km/h 29.0 mph /  46.7 km/h 65 % 0.0 in /  0 mm
11:59 17.2 °F /  -8.2 °C 10.3 °F /  -12.1 °C 1016.8 in /  34428.8 hPa West 29.6 mph /  47.6 km/h 29.6 mph /  47.6 km/h 64 % 0.0 in /  0 mm
12:04 17.1 °F /  -8.3 °C 10.7 °F /  -11.8 °C 1016.8 in /  34428.8 hPa WSW 29.6 mph /  47.6 km/h 29.6 mph /  47.6 km/h 66 % 0.0 in /  0 mm
12:05 17.1 °F /  -8.3 °C 10.7 °F /  -11.8 °C 1016.8 in /  34428.8 hPa West 24.1 mph /  38.8 km/h 24.1 mph /  38.8 km/h 66 % 0.0 in /  0 mm
12:06 17.0 °F /  -8.3 °C 10.6 °F /  -11.9 °C 1016.8 in /  34428.8 hPa WSW 24.1 mph /  38.8 km/h 24.1 mph /  38.8 km/h 66 % 0.0 in /  0 mm
12:11 17.1 °F /  -8.3 °C 10.5 °F /  -11.9 °C 1016.5 in /  34418.7 hPa West 22.2 mph /  35.7 km/h 22.2 mph /  35.7 km/h 65 % 0.0 in /  0 mm
12:16 17.4 °F /  -8.1 °C 10.1 °F /  -12.2 °C 1016.5 in /  34418.7 hPa West 22.2 mph /  35.7 km/h 22.2 mph /  35.7 km/h 62 % 0.0 in /  0 mm
12:17 17.6 °F /  -8 °C 9.9 °F /  -12.3 °C 1016.5 in /  34418.7 hPa WNW 22.2 mph /  35.7 km/h 22.2 mph /  35.7 km/h 61 % 0.0 in /  0 mm
12:21 17.7 °F /  -7.9 °C 10.1 °F /  -12.2 °C 1016.1 in /  34405.1 hPa WNW 22.2 mph /  35.7 km/h 22.2 mph /  35.7 km/h 61 % 0.0 in /  0 mm
12:25 17.7 °F /  -7.9 °C 9.8 °F /  -12.3 °C 1016.1 in /  34405.1 hPa West 31.5 mph /  50.7 km/h 31.5 mph /  50.7 km/h 60 % 0.0 in /  0 mm
12:31 17.7 °F /  -7.9 °C 9.6 °F /  -12.4 °C 1015.8 in /  34395 hPa WNW 13.0 mph /  20.9 km/h 13.0 mph /  20.9 km/h 59 % 0.0 in /  0 mm
12:32 17.8 °F /  -7.9 °C 9.7 °F /  -12.4 °C 1015.8 in /  34395 hPa WSW 12.9 mph /  20.8 km/h 12.9 mph /  20.8 km/h 59 % 0.0 in /  0 mm
12:37 17.8 °F /  -7.9 °C 9.4 °F /  -12.6 °C 1015.8 in /  34395 hPa WNW 22.2 mph /  35.7 km/h 22.2 mph /  35.7 km/h 58 % 0.0 in /  0 mm
12:39 17.8 °F /  -7.9 °C 9.4 °F /  -12.6 °C 1015.8 in /  34395 hPa West 18.5 mph /  29.8 km/h 18.5 mph /  29.8 km/h 58 % 0.0 in /  0 mm
12:41 17.8 °F /  -7.9 °C 9.4 °F /  -12.6 °C 1015.8 in /  34395 hPa West 22.2 mph /  35.7 km/h 22.2 mph /  35.7 km/h 58 % 0.0 in /  0 mm
12:44 17.8 °F /  -7.9 °C 9.4 °F /  -12.6 °C 1015.8 in /  34395 hPa WSW 18.5 mph /  29.8 km/h 18.5 mph /  29.8 km/h 58 % 0.0 in /  0 mm
12:49 17.8 °F /  -7.9 °C 9.4 °F /  -12.6 °C 1015.5 in /  34384.8 hPa West 14.8 mph /  23.8 km/h 14.8 mph /  23.8 km/h 58 % 0.0 in /  0 mm
12:54 18.0 °F /  -7.8 °C 9.6 °F /  -12.4 °C 1015.5 in /  34384.8 hPa West 13.0 mph /  20.9 km/h 13.0 mph /  20.9 km/h 58 % 0.0 in /  0 mm
12:57 18.1 °F /  -7.7 °C 9.4 °F /  -12.6 °C 1015.1 in /  34371.3 hPa WNW 20.9 mph /  33.6 km/h 20.9 mph /  33.6 km/h 57 % 0.0 in /  0 mm
13:00 18.2 °F /  -7.7 °C 9.2 °F /  -12.7 °C 1015.1 in /  34371.3 hPa West 24.1 mph /  38.8 km/h 24.1 mph /  38.8 km/h 56 % 0.0 in /  0 mm
13:02 18.2 °F /  -7.7 °C 9.2 °F /  -12.7 °C 1015.1 in /  34371.3 hPa WNW 24.1 mph /  38.8 km/h 24.1 mph /  38.8 km/h 56 % 0.0 in /  0 mm
13:07 18.2 °F /  -7.7 °C 9.3 °F /  -12.6 °C 1015.1 in /  34371.3 hPa WNW 25.9 mph /  41.7 km/h 25.9 mph /  41.7 km/h 56 % 0.0 in /  0 mm
13:10 18.2 °F /  -7.7 °C 9.3 °F /  -12.6 °C 1014.8 in /  34361.1 hPa West 13.0 mph /  20.9 km/h 13.0 mph /  20.9 km/h 56 % 0.0 in /  0 mm
13:13 18.2 °F /  -7.7 °C 9.0 °F /  -12.8 °C 1014.8 in /  34361.1 hPa West 20.4 mph /  32.8 km/h 20.6 mph /  33.2 km/h 55 % 0.0 in /  0 mm
13:18 18.3 °F /  -7.6 °C 9.1 °F /  -12.7 °C 1014.8 in /  34361.1 hPa West 16.7 mph /  26.9 km/h 16.7 mph /  26.9 km/h 55 % 0.0 in /  0 mm
13:23 18.3 °F /  -7.6 °C 8.8 °F /  -12.9 °C 1014.4 in /  34347.6 hPa West 24.1 mph /  38.8 km/h 24.1 mph /  38.8 km/h 54 % 0.0 in /  0 mm
13:28 18.3 °F /  -7.6 °C 9.1 °F /  -12.7 °C 1014.4 in /  34347.6 hPa West 24.1 mph /  38.8 km/h 24.1 mph /  38.8 km/h 55 % 0.0 in /  0 mm
13:33 18.3 °F /  -7.6 °C 9.1 °F /  -12.7 °C 1014.4 in /  34347.6 hPa West 22.2 mph /  35.7 km/h 22.2 mph /  35.7 km/h 55 % 0.0 in /  0 mm
13:35 18.4 °F /  -7.6 °C 9.2 °F /  -12.7 °C 1014.1 in /  34337.4 hPa West 20.4 mph /  32.8 km/h 20.4 mph /  32.8 km/h 55 % 0.0 in /  0 mm
13:36 18.4 °F /  -7.6 °C 9.2 °F /  -12.7 °C 1014.1 in /  34337.4 hPa West 20.4 mph /  32.8 km/h 20.4 mph /  32.8 km/h 55 % 0.0 in /  0 mm
13:41 18.4 °F /  -7.6 °C 9.2 °F /  -12.7 °C 1014.1 in /  34337.4 hPa WSW 24.1 mph /  38.8 km/h 24.1 mph /  38.8 km/h 55 % 0.0 in /  0 mm
13:46 18.4 °F /  -7.6 °C 9.2 °F /  -12.7 °C 1014.1 in /  34337.4 hPa West 18.5 mph /  29.8 km/h 18.5 mph /  29.8 km/h 55 % 0.0 in /  0 mm
13:51 18.5 °F /  -7.5 °C 9.0 °F /  -12.8 °C 1014.1 in /  34337.4 hPa WSW 20.9 mph /  33.6 km/h 20.9 mph /  33.6 km/h 54 % 0.0 in /  0 mm
13:53 18.5 °F /  -7.5 °C 9.3 °F /  -12.6 °C 1013.8 in /  34327.3 hPa WSW 31.5 mph /  50.7 km/h 31.5 mph /  50.7 km/h 55 % 0.0 in /  0 mm
13:54 18.5 °F /  -7.5 °C 9.3 °F /  -12.6 °C 1013.8 in /  34327.3 hPa WSW 31.5 mph /  50.7 km/h 31.5 mph /  50.7 km/h 55 % 0.0 in /  0 mm
13:59 18.4 °F /  -7.6 °C 9.7 °F /  -12.4 °C 1013.8 in /  34327.3 hPa WSW 24.1 mph /  38.8 km/h 24.1 mph /  38.8 km/h 57 % 0.0 in /  0 mm
14:04 18.4 °F /  -7.6 °C 9.7 °F /  -12.4 °C 1013.4 in /  34313.7 hPa WSW 18.5 mph /  29.8 km/h 18.5 mph /  29.8 km/h 57 % 0.0 in /  0 mm
14:08 18.3 °F /  -7.6 °C 9.4 °F /  -12.6 °C 1013.4 in /  34313.7 hPa West 27.8 mph /  44.7 km/h 27.8 mph /  44.7 km/h 56 % 0.0 in /  0 mm
14:12 18.4 °F /  -7.6 °C 9.7 °F /  -12.4 °C 1013.4 in /  34313.7 hPa West 25.9 mph /  41.7 km/h 25.9 mph /  41.7 km/h 57 % 0.0 in /  0 mm
14:17 18.3 °F /  -7.6 °C 9.6 °F /  -12.4 °C 1013.1 in /  34303.6 hPa WSW 29.6 mph /  47.6 km/h 29.6 mph /  47.6 km/h 57 % 0.0 in /  0 mm
14:20 18.1 °F /  -7.7 °C 9.7 °F /  -12.4 °C 1013.1 in /  34303.6 hPa West 37.0 mph /  59.5 km/h 37.0 mph /  59.5 km/h 58 % 0.0 in /  0 mm
14:25 17.9 °F /  -7.8 °C 9.8 °F /  -12.3 °C 1013.1 in /  34303.6 hPa WSW 33.3 mph /  53.6 km/h 33.3 mph /  53.6 km/h 59 % 0.0 in /  0 mm
14:30 17.6 °F /  -8 °C 9.7 °F /  -12.4 °C 1013.1 in /  34303.6 hPa West 38.9 mph /  62.6 km/h 38.9 mph /  62.6 km/h 60 % 0.0 in /  0 mm
14:33 17.5 °F /  -8.1 °C 9.9 °F /  -12.3 °C 1013.1 in /  34303.6 hPa West 37.0 mph /  59.5 km/h 37.0 mph /  59.5 km/h 61 % 0.0 in /  0 mm
14:36 17.5 °F /  -8.1 °C 9.9 °F /  -12.3 °C 1013.1 in /  34303.6 hPa WSW 35.2 mph /  56.6 km/h 35.2 mph /  56.6 km/h 61 % 0.0 in /  0 mm
14:40 17.6 °F /  -8 °C 9.7 °F /  -12.4 °C 1012.8 in /  34293.4 hPa West 27.8 mph /  44.7 km/h 27.8 mph /  44.7 km/h 60 % 0.0 in /  0 mm
14:45 18.0 °F /  -7.8 °C 9.6 °F /  -12.4 °C 1012.8 in /  34293.4 hPa West 31.5 mph /  50.7 km/h 31.5 mph /  50.7 km/h 58 % 0.0 in /  0 mm
14:50 18.3 °F /  -7.6 °C 9.4 °F /  -12.6 °C 1012.8 in /  34293.4 hPa WSW 24.1 mph /  38.8 km/h 24.1 mph /  38.8 km/h 56 % 0.0 in /  0 mm
14:55 18.5 °F /  -7.5 °C 9.6 °F /  -12.4 °C 1012.4 in /  34279.9 hPa West 20.9 mph /  33.6 km/h 20.9 mph /  33.6 km/h 56 % 0.0 in /  0 mm
14:59 18.7 °F /  -7.4 °C 9.7 °F /  -12.4 °C 1012.4 in /  34279.9 hPa West 18.5 mph /  29.8 km/h 18.5 mph /  29.8 km/h 56 % 0.0 in /  0 mm
15:04 18.7 °F /  -7.4 °C 9.5 °F /  -12.5 °C 1012.4 in /  34279.9 hPa NW 27.8 mph /  44.7 km/h 27.8 mph /  44.7 km/h 55 % 0.0 in /  0 mm
15:08 18.7 °F /  -7.4 °C 9.4 °F /  -12.6 °C 1012.4 in /  34279.9 hPa West 18.5 mph /  29.8 km/h 18.5 mph /  29.8 km/h 55 % 0.0 in /  0 mm
15:09 18.7 °F /  -7.4 °C 9.4 °F /  -12.6 °C 1012.4 in /  34279.9 hPa West 20.4 mph /  32.8 km/h 20.4 mph /  32.8 km/h 55 % 0.0 in /  0 mm
15:15 18.5 °F /  -7.5 °C 9.3 °F /  -12.6 °C 1012.1 in /  34269.7 hPa West 19.3 mph /  31.1 km/h 25.7 mph /  41.4 km/h 55 % 0.0 in /  0 mm
15:16 18.4 °F /  -7.6 °C 9.2 °F /  -12.7 °C 1012.4 in /  34279.9 hPa WSW 35.2 mph /  56.6 km/h 35.2 mph /  56.6 km/h 55 % 0.0 in /  0 mm
15:22 18.3 °F /  -7.6 °C 9.3 °F /  -12.6 °C 1012.1 in /  34269.7 hPa West 22.2 mph /  35.7 km/h 22.2 mph /  35.7 km/h 56 % 0.0 in /  0 mm
15:27 18.3 °F /  -7.6 °C 9.1 °F /  -12.7 °C 1012.1 in /  34269.7 hPa West 18.5 mph /  29.8 km/h 18.5 mph /  29.8 km/h 55 % 0.0 in /  0 mm
15:32 18.5 °F /  -7.5 °C 9.6 °F /  -12.4 °C 1012.1 in /  34269.7 hPa West 31.5 mph /  50.7 km/h 31.5 mph /  50.7 km/h 56 % 0.0 in /  0 mm
15:34 18.4 °F /  -7.6 °C 10.0 °F /  -12.2 °C 1012.1 in /  34269.7 hPa WSW 31.5 mph /  50.7 km/h 31.5 mph /  50.7 km/h 58 % 0.0 in /  0 mm
15:39 17.8 °F /  -7.9 °C 9.9 °F /  -12.3 °C 1012.1 in /  34269.7 hPa WSW 31.5 mph /  50.7 km/h 31.5 mph /  50.7 km/h 60 % 0.0 in /  0 mm
15:40 17.8 °F /  -7.9 °C 10.2 °F /  -12.1 °C 1012.1 in /  34269.7 hPa WSW 25.9 mph /  41.7 km/h 25.9 mph /  41.7 km/h 61 % 0.0 in /  0 mm
15:46 17.4 °F /  -8.1 °C 11.0 °F /  -11.7 °C 1012.1 in /  34269.7 hPa West 33.3 mph /  53.6 km/h 33.3 mph /  53.6 km/h 66 % 0.0 in /  0 mm
15:51 16.9 °F /  -8.4 °C 11.4 °F /  -11.4 °C 1012.1 in /  34269.7 hPa WSW 30.6 mph /  49.2 km/h 30.6 mph /  49.2 km/h 70 % 0.0 in /  0 mm
15:55 16.8 °F /  -8.4 °C 11.5 °F /  -11.4 °C 1012.4 in /  34279.9 hPa WSW 38.6 mph /  62.1 km/h 38.6 mph /  62.1 km/h 71 % 0.0 in /  0 mm
16:03 16.5 °F /  -8.6 °C 11.8 °F /  -11.2 °C 1012.1 in /  34269.7 hPa WSW 33.3 mph /  53.6 km/h 33.3 mph /  53.6 km/h 74 % 0.0 in /  0 mm
16:08 16.3 °F /  -8.7 °C 11.6 °F /  -11.3 °C 1012.1 in /  34269.7 hPa WSW 37.0 mph /  59.5 km/h 37.0 mph /  59.5 km/h 74 % 0.0 in /  0 mm
16:13 16.3 °F /  -8.7 °C 11.7 °F /  -11.3 °C 1012.1 in /  34269.7 hPa SW 38.9 mph /  62.6 km/h 38.9 mph /  62.6 km/h 74 % 0.0 in /  0 mm
16:18 16.3 °F /  -8.7 °C 11.7 °F /  -11.3 °C 1012.1 in /  34269.7 hPa WSW 42.6 mph /  68.6 km/h 42.6 mph /  68.6 km/h 74 % 0.0 in /  0 mm
16:23 16.2 °F /  -8.8 °C 11.6 °F /  -11.3 °C 1012.1 in /  34269.7 hPa WSW 40.7 mph /  65.5 km/h 40.7 mph /  65.5 km/h 74 % 0.0 in /  0 mm
16:24 16.2 °F /  -8.8 °C 11.8 °F /  -11.2 °C 1012.1 in /  34269.7 hPa West 35.2 mph /  56.6 km/h 35.2 mph /  56.6 km/h 75 % 0.0 in /  0 mm
16:29 16.1 °F /  -8.8 °C 11.7 °F /  -11.3 °C 1012.1 in /  34269.7 hPa West 40.7 mph /  65.5 km/h 40.7 mph /  65.5 km/h 75 % 0.0 in /  0 mm
16:35 16.1 °F /  -8.8 °C 11.7 °F /  -11.3 °C 1011.7 in /  34256.2 hPa WSW 27.4 mph /  44.1 km/h 46.7 mph /  75.2 km/h 75 % 0.0 in /  0 mm
16:40 16.1 °F /  -8.8 °C 11.7 °F /  -11.3 °C 1011.7 in /  34256.2 hPa WSW 33.3 mph /  53.6 km/h 33.3 mph /  53.6 km/h 75 % 0.0 in /  0 mm
16:45 16.2 °F /  -8.8 °C 11.7 °F /  -11.3 °C 1011.7 in /  34256.2 hPa WSW 29.6 mph /  47.6 km/h 29.6 mph /  47.6 km/h 75 % 0.0 in /  0 mm
16:47 16.2 °F /  -8.8 °C 11.7 °F /  -11.3 °C 1011.7 in /  34256.2 hPa SW 29.6 mph /  47.6 km/h 29.6 mph /  47.6 km/h 75 % 0.0 in /  0 mm
16:48 16.2 °F /  -8.8 °C 11.7 °F /  -11.3 °C 1011.7 in /  34256.2 hPa WSW 38.9 mph /  62.6 km/h 38.9 mph /  62.6 km/h 75 % 0.0 in /  0 mm
16:54 16.2 °F /  -8.8 °C 11.7 °F /  -11.3 °C 1011.7 in /  34256.2 hPa West 29.6 mph /  47.6 km/h 29.6 mph /  47.6 km/h 75 % 0.0 in /  0 mm
16:59 16.1 °F /  -8.8 °C 11.7 °F /  -11.3 °C 1011.7 in /  34256.2 hPa WSW 33.3 mph /  53.6 km/h 33.3 mph /  53.6 km/h 75 % 0.0 in /  0 mm
17:01 16.1 °F /  -8.8 °C 11.7 °F /  -11.3 °C 1011.7 in /  34256.2 hPa WSW 31.5 mph /  50.7 km/h 31.5 mph /  50.7 km/h 75 % 0.0 in /  0 mm
17:06 16.2 °F /  -8.8 °C 11.7 °F /  -11.3 °C 1011.4 in /  34246 hPa West 33.8 mph /  54.4 km/h 33.8 mph /  54.4 km/h 75 % 0.0 in /  0 mm
17:11 16.2 °F /  -8.8 °C 11.6 °F /  -11.3 °C 1011.4 in /  34246 hPa West 33.8 mph /  54.4 km/h 33.8 mph /  54.4 km/h 74 % 0.0 in /  0 mm
17:16 16.4 °F /  -8.7 °C 11.6 °F /  -11.3 °C 1011.7 in /  34256.2 hPa West 31.5 mph /  50.7 km/h 31.5 mph /  50.7 km/h 73 % 0.0 in /  0 mm
17:21 16.4 °F /  -8.7 °C 11.6 °F /  -11.3 °C 1011.4 in /  34246 hPa WSW 31.5 mph /  50.7 km/h 31.5 mph /  50.7 km/h 73 % 0.0 in /  0 mm
17:27 16.3 °F /  -8.7 °C 11.4 °F /  -11.4 °C 1011.4 in /  34246 hPa West 27.8 mph /  44.7 km/h 27.8 mph /  44.7 km/h 73 % 0.0 in /  0 mm
17:28 16.3 °F /  -8.7 °C 11.4 °F /  -11.4 °C 1011.4 in /  34246 hPa WSW 24.1 mph /  38.8 km/h 24.1 mph /  38.8 km/h 73 % 0.0 in /  0 mm
17:34 16.2 °F /  -8.8 °C 11.4 °F /  -11.4 °C 1011.4 in /  34246 hPa West 27.8 mph /  44.7 km/h 27.8 mph /  44.7 km/h 73 % 0.0 in /  0 mm
17:36 16.2 °F /  -8.8 °C 11.4 °F /  -11.4 °C 1011.4 in /  34246 hPa West 22.2 mph /  35.7 km/h 22.2 mph /  35.7 km/h 73 % 0.0 in /  0 mm
17:41 16.2 °F /  -8.8 °C 11.1 °F /  -11.6 °C 1011.4 in /  34246 hPa WSW 31.5 mph /  50.7 km/h 31.5 mph /  50.7 km/h 72 % 0.0 in /  0 mm
17:43 16.2 °F /  -8.8 °C 11.1 °F /  -11.6 °C 1011.4 in /  34246 hPa West 22.2 mph /  35.7 km/h 22.2 mph /  35.7 km/h 72 % 0.0 in /  0 mm
17:48 16.2 °F /  -8.8 °C 10.9 °F /  -11.7 °C 1011.4 in /  34246 hPa West 31.5 mph /  50.7 km/h 31.5 mph /  50.7 km/h 71 % 0.0 in /  0 mm
17:52 16.2 °F /  -8.8 °C 10.9 °F /  -11.7 °C 1011.1 in /  34235.8 hPa West 25.9 mph /  41.7 km/h 25.9 mph /  41.7 km/h 71 % 0.0 in /  0 mm
17:54 16.2 °F /  -8.8 °C 10.9 °F /  -11.7 °C 1011.4 in /  34246 hPa WSW 33.3 mph /  53.6 km/h 33.3 mph /  53.6 km/h 71 % 0.0 in /  0 mm
17:59 16.1 °F /  -8.8 °C 10.8 °F /  -11.8 °C 1011.1 in /  34235.8 hPa WNW 27.8 mph /  44.7 km/h 27.8 mph /  44.7 km/h 71 % 0.0 in /  0 mm
18:01 16.1 °F /  -8.8 °C 10.8 °F /  -11.8 °C 1011.1 in /  34235.8 hPa West 24.1 mph /  38.8 km/h 24.1 mph /  38.8 km/h 71 % 0.0 in /  0 mm
18:05 16.1 °F /  -8.8 °C 10.6 °F /  -11.9 °C 1011.1 in /  34235.8 hPa WSW 22.2 mph /  35.7 km/h 22.2 mph /  35.7 km/h 70 % 0.0 in /  0 mm
18:10 16.1 °F /  -8.8 °C 10.6 °F /  -11.9 °C 1011.1 in /  34235.8 hPa West 13.0 mph /  20.9 km/h 13.0 mph /  20.9 km/h 70 % 0.0 in /  0 mm
18:12 16.1 °F /  -8.8 °C 10.6 °F /  -11.9 °C 1011.1 in /  34235.8 hPa West 18.5 mph /  29.8 km/h 18.5 mph /  29.8 km/h 70 % 0.0 in /  0 mm
18:18 16.0 °F /  -8.9 °C 10.6 °F /  -11.9 °C 1011.1 in /  34235.8 hPa WSW 11.3 mph /  18.2 km/h 11.3 mph /  18.2 km/h 70 % 0.0 in /  0 mm
18:23 15.9 °F /  -8.9 °C 10.7 °F /  -11.8 °C 1011.1 in /  34235.8 hPa WSW 24.1 mph /  38.8 km/h 24.1 mph /  38.8 km/h 71 % 0.0 in /  0 mm
18:27 15.8 °F /  -9 °C 10.6 °F /  -11.9 °C 1011.1 in /  34235.8 hPa West 14.8 mph /  23.8 km/h 14.8 mph /  23.8 km/h 71 % 0.0 in /  0 mm
18:32 15.8 °F /  -9 °C 10.6 °F /  -11.9 °C 1011.1 in /  34235.8 hPa West 18.5 mph /  29.8 km/h 18.5 mph /  29.8 km/h 71 % 0.0 in /  0 mm
18:37 15.8 °F /  -9 °C 10.6 °F /  -11.9 °C 1010.7 in /  34222.3 hPa West 22.2 mph /  35.7 km/h 22.2 mph /  35.7 km/h 71 % 0.0 in /  0 mm
18:40 15.8 °F /  -9 °C 10.5 °F /  -11.9 °C 1010.7 in /  34222.3 hPa West 9.7 mph /  15.6 km/h 22.5 mph /  36.2 km/h 71 % 0.0 in /  0 mm
18:45 15.7 °F /  -9.1 °C 10.4 °F /  -12 °C 1010.7 in /  34222.3 hPa West 22.2 mph /  35.7 km/h 22.2 mph /  35.7 km/h 71 % 0.0 in /  0 mm
18:50 15.6 °F /  -9.1 °C 10.6 °F /  -11.9 °C 1010.7 in /  34222.3 hPa West 24.1 mph /  38.8 km/h 24.1 mph /  38.8 km/h 72 % 0.0 in /  0 mm
18:55 15.7 °F /  -9.1 °C 10.4 °F /  -12 °C 1010.4 in /  34212.1 hPa West 25.9 mph /  41.7 km/h 25.9 mph /  41.7 km/h 71 % 0.0 in /  0 mm
19:03 15.7 °F /  -9.1 °C 10.4 °F /  -12 °C 1010.7 in /  34222.3 hPa WSW 22.2 mph /  35.7 km/h 22.2 mph /  35.7 km/h 71 % 0.0 in /  0 mm
19:04 15.7 °F /  -9.1 °C 10.4 °F /  -12 °C 1010.4 in /  34212.1 hPa West 22.2 mph /  35.7 km/h 22.2 mph /  35.7 km/h 71 % 0.0 in /  0 mm
19:09 15.7 °F /  -9.1 °C 10.8 °F /  -11.8 °C 1010.4 in /  34212.1 hPa WSW 27.8 mph /  44.7 km/h 27.8 mph /  44.7 km/h 73 % 0.0 in /  0 mm
19:12 15.6 °F /  -9.1 °C 10.8 °F /  -11.8 °C 1010.7 in /  34222.3 hPa WSW 31.5 mph /  50.7 km/h 31.5 mph /  50.7 km/h 73 % 0.0 in /  0 mm
19:13 15.6 °F /  -9.1 °C 11.0 °F /  -11.7 °C 1010.7 in /  34222.3 hPa WSW 31.5 mph /  50.7 km/h 31.5 mph /  50.7 km/h 74 % 0.0 in /  0 mm
19:18 15.6 °F /  -9.1 °C 10.7 °F /  -11.8 °C 1010.7 in /  34222.3 hPa WNW 42.6 mph /  68.6 km/h 42.6 mph /  68.6 km/h 73 % 0.0 in /  0 mm
19:19 15.6 °F /  -9.1 °C 10.7 °F /  -11.8 °C 1010.4 in /  34212.1 hPa West 37.0 mph /  59.5 km/h 37.0 mph /  59.5 km/h 73 % 0.0 in /  0 mm
19:20 15.6 °F /  -9.1 °C 10.7 °F /  -11.8 °C 1010.4 in /  34212.1 hPa WSW 30.6 mph /  49.2 km/h 30.6 mph /  49.2 km/h 73 % 0.0 in /  0 mm
19:25 15.6 °F /  -9.1 °C 10.7 °F /  -11.8 °C 1010.4 in /  34212.1 hPa West 18.5 mph /  29.8 km/h 18.5 mph /  29.8 km/h 73 % 0.0 in /  0 mm
19:27 15.6 °F /  -9.1 °C 10.7 °F /  -11.8 °C 1010.4 in /  34212.1 hPa West 25.9 mph /  41.7 km/h 25.9 mph /  41.7 km/h 73 % 0.0 in /  0 mm
19:30 15.6 °F /  -9.1 °C 10.7 °F /  -11.8 °C 1010.4 in /  34212.1 hPa WSW 22.2 mph /  35.7 km/h 22.2 mph /  35.7 km/h 73 % 0.0 in /  0 mm
19:32 15.6 °F /  -9.1 °C 10.7 °F /  -11.8 °C 1010.4 in /  34212.1 hPa WSW 25.9 mph /  41.7 km/h 25.9 mph /  41.7 km/h 73 % 0.0 in /  0 mm
19:37 15.5 °F /  -9.2 °C 10.7 °F /  -11.8 °C 1010.4 in /  34212.1 hPa WSW 24.1 mph /  38.8 km/h 24.1 mph /  38.8 km/h 73 % 0.0 in /  0 mm
19:38 15.5 °F /  -9.2 °C 10.7 °F /  -11.8 °C 1010.4 in /  34212.1 hPa West 22.2 mph /  35.7 km/h 22.2 mph /  35.7 km/h 73 % 0.0 in /  0 mm
19:43 15.4 °F /  -9.2 °C 10.8 °F /  -11.8 °C 1010.4 in /  34212.1 hPa West 18.5 mph /  29.8 km/h 18.5 mph /  29.8 km/h 74 % 0.0 in /  0 mm
19:44 15.4 °F /  -9.2 °C 10.8 °F /  -11.8 °C 1010.4 in /  34212.1 hPa West 20.4 mph /  32.8 km/h 20.4 mph /  32.8 km/h 74 % 0.0 in /  0 mm
19:49 15.3 °F /  -9.3 °C 10.7 °F /  -11.8 °C 1010.4 in /  34212.1 hPa West 20.4 mph /  32.8 km/h 20.4 mph /  32.8 km/h 74 % 0.0 in /  0 mm
19:50 15.3 °F /  -9.3 °C 10.7 °F /  -11.8 °C 1010.4 in /  34212.1 hPa West 20.4 mph /  32.8 km/h 20.4 mph /  32.8 km/h 74 % 0.0 in /  0 mm
19:55 15.3 °F /  -9.3 °C 10.7 °F /  -11.8 °C 1010.4 in /  34212.1 hPa WSW 17.7 mph /  28.5 km/h 17.7 mph /  28.5 km/h 74 % 0.0 in /  0 mm
19:59 15.3 °F /  -9.3 °C 10.7 °F /  -11.8 °C 1010.0 in /  34198.6 hPa West 24.1 mph /  38.8 km/h 24.1 mph /  38.8 km/h 74 % 0.0 in /  0 mm
20:04 15.3 °F /  -9.3 °C 10.7 °F /  -11.8 °C 1010.0 in /  34198.6 hPa West 16.7 mph /  26.9 km/h 16.7 mph /  26.9 km/h 74 % 0.0 in /  0 mm
20:09 15.3 °F /  -9.3 °C 10.7 °F /  -11.8 °C 1010.0 in /  34198.6 hPa WSW 22.2 mph /  35.7 km/h 22.2 mph /  35.7 km/h 74 % 0.0 in /  0 mm
20:14 15.3 °F /  -9.3 °C 10.7 °F /  -11.8 °C 1010.0 in /  34198.6 hPa West 18.5 mph /  29.8 km/h 18.5 mph /  29.8 km/h 74 % 0.0 in /  0 mm
20:15 15.3 °F /  -9.3 °C 10.7 °F /  -11.8 °C 1010.0 in /  34198.6 hPa WSW 17.7 mph /  28.5 km/h 17.7 mph /  28.5 km/h 74 % 0.0 in /  0 mm
20:16 15.3 °F /  -9.3 °C 10.7 °F /  -11.8 °C 1010.0 in /  34198.6 hPa WSW 19.3 mph /  31.1 km/h 19.3 mph /  31.1 km/h 74 % 0.0 in /  0 mm
20:21 15.3 °F /  -9.3 °C 10.7 °F /  -11.8 °C 1010.0 in /  34198.6 hPa West 18.5 mph /  29.8 km/h 18.5 mph /  29.8 km/h 74 % 0.0 in /  0 mm
20:26 15.3 °F /  -9.3 °C 10.7 °F /  -11.8 °C 1010.0 in /  34198.6 hPa West 18.5 mph /  29.8 km/h 18.5 mph /  29.8 km/h 74 % 0.0 in /  0 mm
20:27 15.3 °F /  -9.3 °C 10.7 °F /  -11.8 °C 1010.0 in /  34198.6 hPa WSW 18.5 mph /  29.8 km/h 18.5 mph /  29.8 km/h 74 % 0.0 in /  0 mm
20:31 15.3 °F /  -9.3 °C 10.9 °F /  -11.7 °C 1010.0 in /  34198.6 hPa WSW 13.0 mph /  20.9 km/h 13.0 mph /  20.9 km/h 75 % 0.0 in /  0 mm
20:33 15.3 °F /  -9.3 °C 10.9 °F /  -11.7 °C 1010.0 in /  34198.6 hPa West 14.8 mph /  23.8 km/h 14.8 mph /  23.8 km/h 75 % 0.0 in /  0 mm
20:38 15.3 °F /  -9.3 °C 10.9 °F /  -11.7 °C 1010.0 in /  34198.6 hPa West 18.5 mph /  29.8 km/h 18.5 mph /  29.8 km/h 75 % 0.0 in /  0 mm
20:39 15.3 °F /  -9.3 °C 10.9 °F /  -11.7 °C 1009.7 in /  34188.4 hPa WSW 19.3 mph /  31.1 km/h 19.3 mph /  31.1 km/h 75 % 0.0 in /  0 mm
20:44 15.3 °F /  -9.3 °C 10.9 °F /  -11.7 °C 1009.7 in /  34188.4 hPa WSW 18.5 mph /  29.8 km/h 18.5 mph /  29.8 km/h 75 % 0.0 in /  0 mm
20:48 15.3 °F /  -9.3 °C 10.9 °F /  -11.7 °C 1009.7 in /  34188.4 hPa WSW 18.5 mph /  29.8 km/h 18.5 mph /  29.8 km/h 75 % 0.0 in /  0 mm
20:53 15.3 °F /  -9.3 °C 11.1 °F /  -11.6 °C 1009.7 in /  34188.4 hPa WSW 18.5 mph /  29.8 km/h 18.5 mph /  29.8 km/h 76 % 0.0 in /  0 mm
20:58 15.3 °F /  -9.3 °C 11.1 °F /  -11.6 °C 1009.4 in /  34178.3 hPa West 18.5 mph /  29.8 km/h 18.5 mph /  29.8 km/h 76 % 0.0 in /  0 mm
20:59 15.3 °F /  -9.3 °C 11.1 °F /  -11.6 °C 1009.4 in /  34178.3 hPa WSW 18.5 mph /  29.8 km/h 18.5 mph /  29.8 km/h 76 % 0.0 in /  0 mm
21:06 15.3 °F /  -9.3 °C 11.1 °F /  -11.6 °C 1009.4 in /  34178.3 hPa SW 16.7 mph /  26.9 km/h 16.7 mph /  26.9 km/h 76 % 0.0 in /  0 mm
21:12 15.3 °F /  -9.3 °C 11.1 °F /  -11.6 °C 1009.4 in /  34178.3 hPa WSW 13.0 mph /  20.9 km/h 13.0 mph /  20.9 km/h 76 % 0.0 in /  0 mm
21:15 15.2 °F /  -9.3 °C 11.2 °F /  -11.6 °C 1009.4 in /  34178.3 hPa West 11.3 mph /  18.2 km/h 14.5 mph /  23.3 km/h 77 % 0.0 in /  0 mm
21:17 15.2 °F /  -9.3 °C 11.2 °F /  -11.6 °C 1009.4 in /  34178.3 hPa West 9.3 mph /  15 km/h 9.3 mph /  15 km/h 77 % 0.0 in /  0 mm
21:20 15.2 °F /  -9.3 °C 11.2 °F /  -11.6 °C 1009.4 in /  34178.3 hPa West 13.0 mph /  20.9 km/h 13.0 mph /  20.9 km/h 77 % 0.0 in /  0 mm
21:23 15.2 °F /  -9.3 °C 11.2 °F /  -11.6 °C 1009.4 in /  34178.3 hPa West 13.0 mph /  20.9 km/h 13.0 mph /  20.9 km/h 77 % 0.0 in /  0 mm
21:27 15.2 °F /  -9.3 °C 11.2 °F /  -11.6 °C 1009.4 in /  34178.3 hPa WSW 14.8 mph /  23.8 km/h 14.8 mph /  23.8 km/h 77 % 0.0 in /  0 mm
21:33 15.2 °F /  -9.3 °C 11.2 °F /  -11.6 °C 1009.4 in /  34178.3 hPa WSW 13.0 mph /  20.9 km/h 13.0 mph /  20.9 km/h 77 % 0.0 in /  0 mm
21:35 15.2 °F /  -9.3 °C 11.4 °F /  -11.4 °C 1009.4 in /  34178.3 hPa WSW 14.8 mph /  23.8 km/h 14.8 mph /  23.8 km/h 78 % 0.0 in /  0 mm
21:40 15.3 °F /  -9.3 °C 11.8 °F /  -11.2 °C 1009.4 in /  34178.3 hPa WSW 12.9 mph /  20.8 km/h 12.9 mph /  20.8 km/h 80 % 0.0 in /  0 mm
21:45 15.2 °F /  -9.3 °C 11.8 °F /  -11.2 °C 1009.0 in /  34164.7 hPa WSW 18.5 mph /  29.8 km/h 18.5 mph /  29.8 km/h 80 % 0.0 in /  0 mm
21:50 15.1 °F /  -9.4 °C 11.7 °F /  -11.3 °C 1009.0 in /  34164.7 hPa WSW 20.4 mph /  32.8 km/h 20.4 mph /  32.8 km/h 80 % 0.0 in /  0 mm
21:53 15.1 °F /  -9.4 °C 11.9 °F /  -11.2 °C 1009.0 in /  34164.7 hPa West 25.9 mph /  41.7 km/h 25.9 mph /  41.7 km/h 81 % 0.0 in /  0 mm
21:58 15.1 °F /  -9.4 °C 11.9 °F /  -11.2 °C 1009.0 in /  34164.7 hPa WSW 27.8 mph /  44.7 km/h 27.8 mph /  44.7 km/h 81 % 0.0 in /  0 mm
21:59 15.1 °F /  -9.4 °C 11.9 °F /  -11.2 °C 1009.0 in /  34164.7 hPa WSW 25.9 mph /  41.7 km/h 25.9 mph /  41.7 km/h 81 % 0.0 in /  0 mm
22:01 15.1 °F /  -9.4 °C 11.8 °F /  -11.2 °C 1009.4 in /  34178.3 hPa WSW 31.5 mph /  50.7 km/h 31.5 mph /  50.7 km/h 81 % 0.0 in /  0 mm
22:06 15.1 °F /  -9.4 °C 11.6 °F /  -11.3 °C 1009.0 in /  34164.7 hPa WSW 24.1 mph /  38.8 km/h 24.1 mph /  38.8 km/h 80 % 0.0 in /  0 mm
22:09 15.1 °F /  -9.4 °C 11.6 °F /  -11.3 °C 1009.0 in /  34164.7 hPa SW 25.9 mph /  41.7 km/h 25.9 mph /  41.7 km/h 80 % 0.0 in /  0 mm
22:10 15.1 °F /  -9.4 °C 11.8 °F /  -11.2 °C 1009.0 in /  34164.7 hPa West 25.9 mph /  41.7 km/h 25.9 mph /  41.7 km/h 81 % 0.0 in /  0 mm
22:14 15.1 °F /  -9.4 °C 11.9 °F /  -11.2 °C 1008.7 in /  34154.6 hPa WSW 22.2 mph /  35.7 km/h 22.2 mph /  35.7 km/h 81 % 0.0 in /  0 mm
22:19 15.1 °F /  -9.4 °C 11.8 °F /  -11.2 °C 1008.7 in /  34154.6 hPa WSW 24.1 mph /  38.8 km/h 24.1 mph /  38.8 km/h 81 % 0.0 in /  0 mm
22:21 15.1 °F /  -9.4 °C 11.8 °F /  -11.2 °C 1008.7 in /  34154.6 hPa WSW 22.2 mph /  35.7 km/h 22.2 mph /  35.7 km/h 81 % 0.0 in /  0 mm
22:22 15.1 °F /  -9.4 °C 11.8 °F /  -11.2 °C 1008.7 in /  34154.6 hPa WSW 22.2 mph /  35.7 km/h 22.2 mph /  35.7 km/h 81 % 0.0 in /  0 mm
22:27 15.0 °F /  -9.4 °C 11.8 °F /  -11.2 °C 1008.7 in /  34154.6 hPa WSW 22.2 mph /  35.7 km/h 22.2 mph /  35.7 km/h 81 % 0.0 in /  0 mm
22:30 15.0 °F /  -9.4 °C 11.8 °F /  -11.2 °C 1008.4 in /  34144.4 hPa WSW 24.1 mph /  38.8 km/h 24.1 mph /  38.8 km/h 81 % 0.0 in /  0 mm
22:31 15.0 °F /  -9.4 °C 11.8 °F /  -11.2 °C 1008.4 in /  34144.4 hPa WSW 24.1 mph /  38.8 km/h 24.1 mph /  38.8 km/h 81 % 0.0 in /  0 mm
22:36 14.9 °F /  -9.5 °C 11.7 °F /  -11.3 °C 1008.4 in /  34144.4 hPa WSW 18.5 mph /  29.8 km/h 18.5 mph /  29.8 km/h 81 % 0.0 in /  0 mm
22:37 14.9 °F /  -9.5 °C 11.7 °F /  -11.3 °C 1008.4 in /  34144.4 hPa West 16.7 mph /  26.9 km/h 16.7 mph /  26.9 km/h 81 % 0.0 in /  0 mm
22:42 14.9 °F /  -9.5 °C 11.7 °F /  -11.3 °C 1008.4 in /  34144.4 hPa WSW 18.5 mph /  29.8 km/h 18.5 mph /  29.8 km/h 81 % 0.0 in /  0 mm
22:46 14.9 °F /  -9.5 °C 11.5 °F /  -11.4 °C 1008.4 in /  34144.4 hPa WSW 24.1 mph /  38.8 km/h 24.1 mph /  38.8 km/h 80 % 0.0 in /  0 mm
22:49 14.9 °F /  -9.5 °C 11.5 °F /  -11.4 °C 1008.4 in /  34144.4 hPa WSW 22.2 mph /  35.7 km/h 22.2 mph /  35.7 km/h 80 % 0.0 in /  0 mm
22:54 14.9 °F /  -9.5 °C 11.7 °F /  -11.3 °C 1008.4 in /  34144.4 hPa West 22.2 mph /  35.7 km/h 22.2 mph /  35.7 km/h 81 % 0.0 in /  0 mm
22:55 15.0 °F /  -9.4 °C 11.8 °F /  -11.2 °C 1008.4 in /  34144.4 hPa WSW 22.2 mph /  35.7 km/h 22.2 mph /  35.7 km/h 81 % 0.0 in /  0 mm
22:59 15.0 °F /  -9.4 °C 11.8 °F /  -11.2 °C 1008.0 in /  34130.9 hPa West 22.2 mph /  35.7 km/h 22.2 mph /  35.7 km/h 81 % 0.0 in /  0 mm
23:02 15.0 °F /  -9.4 °C 11.8 °F /  -11.2 °C 1008.0 in /  34130.9 hPa West 22.2 mph /  35.7 km/h 22.2 mph /  35.7 km/h 81 % 0.0 in /  0 mm
23:07 14.9 °F /  -9.5 °C 11.7 °F /  -11.3 °C 1008.0 in /  34130.9 hPa WSW 27.4 mph /  44.1 km/h 27.4 mph /  44.1 km/h 81 % 0.0 in /  0 mm
23:12 14.9 °F /  -9.5 °C 11.7 °F /  -11.3 °C 1008.0 in /  34130.9 hPa West 25.9 mph /  41.7 km/h 25.9 mph /  41.7 km/h 81 % 0.0 in /  0 mm
23:17 14.9 °F /  -9.5 °C 11.7 °F /  -11.3 °C 1008.0 in /  34130.9 hPa WSW 22.2 mph /  35.7 km/h 22.2 mph /  35.7 km/h 81 % 0.0 in /  0 mm
23:18 14.9 °F /  -9.5 °C 11.7 °F /  -11.3 °C 1008.0 in /  34130.9 hPa West 19.3 mph /  31.1 km/h 19.3 mph /  31.1 km/h 81 % 0.0 in /  0 mm
23:23 14.9 °F /  -9.5 °C 11.7 °F /  -11.3 °C 1007.7 in /  34120.7 hPa WSW 24.1 mph /  38.8 km/h 24.1 mph /  38.8 km/h 81 % 0.0 in /  0 mm
23:28 15.0 °F /  -9.4 °C 11.8 °F /  -11.2 °C 1007.7 in /  34120.7 hPa West 25.9 mph /  41.7 km/h 25.9 mph /  41.7 km/h 81 % 0.0 in /  0 mm
23:31 14.9 °F /  -9.5 °C 11.5 °F /  -11.4 °C 1007.7 in /  34120.7 hPa WNW 25.9 mph /  41.7 km/h 25.9 mph /  41.7 km/h 80 % 0.0 in /  0 mm
23:35 14.9 °F /  -9.5 °C 11.5 °F /  -11.4 °C 1007.7 in /  34120.7 hPa WSW 27.4 mph /  44.1 km/h 27.4 mph /  44.1 km/h 80 % 0.0 in /  0 mm
23:37 14.9 °F /  -9.5 °C 11.5 °F /  -11.4 °C 1007.7 in /  34120.7 hPa WSW 30.6 mph /  49.2 km/h 30.6 mph /  49.2 km/h 80 % 0.0 in /  0 mm
23:41 14.9 °F /  -9.5 °C 11.7 °F /  -11.3 °C 1007.3 in /  34107.2 hPa WSW 30.6 mph /  49.2 km/h 30.6 mph /  49.2 km/h 81 % 0.0 in /  0 mm
23:46 14.9 °F /  -9.5 °C 11.7 °F /  -11.3 °C 1007.3 in /  34107.2 hPa WSW 27.8 mph /  44.7 km/h 27.8 mph /  44.7 km/h 81 % 0.0 in /  0 mm
23:50 14.9 °F /  -9.5 °C 11.7 °F /  -11.3 °C 1007.3 in /  34107.2 hPa WSW 22.5 mph /  36.2 km/h 32.2 mph /  51.8 km/h 81 % 0.0 in /  0 mm
23:55 14.9 °F /  -9.5 °C 11.5 °F /  -11.4 °C 1007.3 in /  34107.2 hPa West 31.5 mph /  50.7 km/h 31.5 mph /  50.7 km/h 80 % 0.0 in /  0 mm
23:56 14.9 °F /  -9.5 °C 11.5 °F /  -11.4 °C 1007.3 in /  34107.2 hPa West 31.5 mph /  50.7 km/h 31.5 mph /  50.7 km/h 80 % 0.0 in /  0 mm
Puerto Banus, Marbella
Elogios de Weather Underground - 2.75 mb

Guión original por  Jim McMurry - jmcmurry@mwt.net Adaptado para la plantilla por  Wim van der Kuil - Leuven-Template.eu

Usted encontrará nuestra información del tiempo también en:

Weather Underground

Iberian Peninsula Weather Network